Terminal Aerodrome Forecast
Issued by NWS North Platte, NE

Home | Current Version | Previous Version | Graphics & Text | Print | Product List | Glossary On
Versions: 1 2 3 4 5 6 7 8 9 10 11 12 13 14 15 16 17
014
FTUS43 KLBF 221603 AAA
TAFVTN
TAF AMD
KVTN 221603Z 2216/2312 18009KT P6SM SCT050
     FM230300 16005KT P6SM SCT050=

USA.gov is the U.S. government's official web portal to all federal, state and local government web resources and services.